Flight Number: EUR1196 Duration: 3:00
Departure: Paris Charles-de-Gaulle (LFPG) at 03:00 Distance: 1138 Nm
Arrival: Athens Int'l (LGAV) at 06:00 Equipment: A330-200

Weather Information
Paris-Aeroport Charles De Gaulle, France (LFPG) 49-01N 002-32E 109M May 24, 2018 - 05:00 PM EDT / 2018.05.24 2100 UTC
Wind: from the NE (050 degrees) at 6 MPH (5 KT):0
Visibility: greater than 7 mile(s):0 Temperature: 60 F (16 C) Dew Point: 55 F (13 C) Relative Humidity: 82% Pressure (altimeter): 30.03 in. Hg (1017 hPa)
ob: LFPG 242100Z 05005KT CAVOK 16/13 Q1017 NOSIG cycle: 21
Sunrise: 04:00 Sunset: 19:32 (UTC)

Athens Eleftherios Venizelos International Airport, Greece (LGAV) 37-56N 023-56E May 24, 2018 - 05:20 PM EDT / 2018.05.24 2120 UTC
Wind: Variable at 3 MPH (3 KT):0
Visibility: greater than 7 mile(s):0
Sky conditions: mostly clear Temperature: 68 F (20 C) Dew Point: 57 F (14 C) Relative Humidity: 68% Pressure (altimeter): 29.88 in. Hg (1012 hPa)
ob: LGAV 242120Z VRB03KT 9999 FEW030 20/14 Q1012 NOSIG cycle: 21
Sunrise: 03:10 Sunset: 17:31 (UTC)

TAF:2018/05/24 18:12 TAF TAF LGAV 241700Z 2418/2518 05010KT 9999 FEW020 SCT070 BECMG 2419/2421 31010KT BECMG 2506/2508 01015G25KT

Previous Pireps for this route
Date Aircraft Flight time Fuel used Landing rate On time
2016-01-18A330-20003.16650000Yes
2018-04-27A330-20002.5655682-150No
(pireps marked green are flown by you)

Route map